a
b
c
d

Обмен EUR/RUB Москва, Пролетарская

В данном разделе сайта представлен курс обмена доллара в Москве на текущий день. Статистические данные взяты из открытых источников. Для того, чтобы удостовериться в актуальности представленных сведений обмена USD/RUB в Москве на конкретный момент времени, свяжитесь с представителями банка по указанному в карточке телефону. Для просмотра номера телефона и других сведений о банке достаточно кликнуть на его название в общей таблице. Рынок наличной валюты достаточно подвижен, поэтому данные о курсе обмена доллара и рубля постоянно обновляются. В разделе "Рынок наличной валюты" Вы сможете изучить курс покупки-продажи для разных банков и выбрать наиболее выгодный вариант обмена валюты.


Показать полностью

Обмен Евро и Российских рублей в Москве у метро Пролетарская


Название банка Покупка Продажа Сумма Комм. Время
Банк СОЮЗ (АО) ДО "Волгоградский проспект" 77,05 78,05 1.0 нет 26 сен.
"Нацинвестпромбанк" (АО) ДО "Павелецкий" 76,9 77,9 1.0 нет 26 сен.
ПАО БАНК "МОСКВА-СИТИ" 73 73,5 1001.0 нет 29 июн.
ПАО БАНК "МОСКВА-СИТИ" 73 73,5 1.0 нет 29 июн.
ПАО БАНК "МОСКВА-СИТИ" 73 73,5 10001.0 нет 29 июн.
АО КБ "ЮНИСТРИМ оквку № 325 73,3 73,9 1000.0 нет 23 июн.
АО КБ "ЮНИСТРИМ оквку № 325 73,4 73,9 10000.0 нет 23 июн.
АКБ "НОВЫЙ КРЕДИТНЫЙ СОЮЗ" (АО) оквку № 14 (ВОЛГОГРАДСКИЙ) 70,4 70,8 10001.0 нет 22 мар.
ОАО МАБ "Темпбанк" ул. Крутицкий вал 59 72 1.0 нет 29.09.2017
"РИАБАНК" (АО) оквку "Площадь Ильича" 69,61 70,3 10000.0 нет 16.08.2017
"РИАБАНК" (АО) оквку "Площадь Ильича" 69,45 70,4 1000.0 нет 16.08.2017
"РИАБАНК" (АО) оквку "Площадь Ильича" 69,61 70,3 20000.0 нет 16.08.2017
АО "РФИ БАНК" оквку № 107 71 72,4 5000.0 нет 04.08.2017
АО "РФИ БАНК" оквку № 107 71 72,4 1000.0 нет 04.08.2017
"РИАБАНК" (АО) оквку "Нижегородская 8" 71,9 0 2770.0 нет 02.08.2017
"РИАБАНК" (АО) оквку "Нижегородская 8" 71,8 0 1000.0 нет 02.08.2017
БАНК "РЕЗЕРВ" (АО) ККО "Столичный" 70,65 71,95 100.0 нет 02.08.2017
АО "НДБанк" оквку "На Крутицком" 62,8 63,5 10000 нет 13.03.2017
АО "НДБанк" оквку "На Крутицком" 63 63,55 1000 нет 13.03.2017
АО "НДБанк" оквку "На Крутицком" 63,1 63,65 5000 нет 13.03.2017
АО БАНК "ТГБ" оквку "3-й Крутицкий переулок 13" 61,75 61,99 5000 нет 03.03.2017
АО БАНК "ТГБ" оквку "3-й Крутицкий переулок 13" 61,75 61,99 1000 нет 03.03.2017
АО БАНК "ТГБ" оквку "3-й Крутицкий переулок 13" 58,65 61,84 10000 нет 02.03.2017
АКБ "ГЛОБУС" (ОАО) оквку №5 62,95 63,65 1 нет 08.02.2017
АКБ "ГЛОБУС" (ОАО) оквку №5 62,95 63,65 100 нет 08.02.2017
КБ "Нацинвестпромбанк" (АО) ДО "Павелецкий" 68 69 10000 нет 07.12.2016
КБ "Нацинвестпромбанк" (АО) ДО "Павелецкий" 68 69 100 нет 07.12.2016
КБ "Нацинвестпромбанк" (АО) ДО "Павелецкий" 68 69 1 нет 07.12.2016
КБ "Нацинвестпромбанк" (АО) ДО "Павелецкий" 68,1 69,1 5000 нет 06.12.2016
КБ "Нацинвестпромбанк" (АО) ДО "Павелецкий" 68,1 69,1 1000 нет 06.12.2016
ПАО АКБ "РФА" оквку "3-й Крутицкий пер., д. 13" 64,8699 69,1801 10000 нет 21.11.2016
ПАО АКБ "РФА" оквку "3-й Крутицкий пер., д. 13" 64,8699 69,1801 5000 нет 21.11.2016
ПАО АКБ "РФА" оквку "3-й Крутицкий пер., д. 13" 64,8699 69,1801 1000 нет 21.11.2016
ООО КБ "Камский горизонт" ККО "Крутицкий18" 70,5 71,4 5000 нет 02.10.2016
ООО КБ "Камский горизонт" ККО "Крутицкий18" 70,5 71,4 10000 нет 02.10.2016
ООО КБ "Камский горизонт" ККО "Крутицкий18" 70,5 71,35 1000 нет 01.10.2016
ОАО МАБ "Темпбанк" ул. Крутицкий вал 75,4 77,2 1 Нет 07.09.2015
ООО РНКО "Майма" 75,4 76,5 1 Нет 07.09.2015
"РФИ БАНК" ЗАО оквку № 107 75 76,6 50000 Нет 07.09.2015
"РФИ БАНК" ЗАО оквку № 107 75 76,6 10000 Нет 07.09.2015
АО "Гринкомбанк" оквку "Площадь Ильича" 76,1099 77 1000 Нет 07.09.2015
АО "Гринкомбанк" оквку "Площадь Ильича" 76,1099 77 10000 Нет 07.09.2015
ООО "ЮРБ" оквку № 7 75 0 5000 Нет 07.09.2015
ООО "ЮРБ" оквку № 7 75 76,2 15001 Нет 07.09.2015
ООО "ЮРБ" оквку № 7 75 76,85 1000 Нет 07.09.2015
ООО КБ "Ренессанс" оквку "3-й Крутицкий пер., д. 13" 0 76,2433 10000 Нет 07.09.2015
ООО КБ "Ренессанс" оквку "3-й Крутицкий пер., д. 13" 0 76,2433 1000 Нет 07.09.2015
ООО "ЮРБ" оквку № 7 75 0 10001 Нет 07.09.2015
ООО "ЮРБ" оквку № 7 75 76,5 10000 Нет 07.09.2015
ООО КБ "Ренессанс" оквку "3-й Крутицкий пер., д. 13" 75,1099 76,1944 5000 Нет 06.09.2015

Погода сейчас

+17°C
Солнечно, влажность 62%
Москва